createdAt,value
2018-09-23T00:01:43.795Z,59.86
2018-09-23T00:04:12.683Z,60.22
2018-09-23T00:06:41.646Z,60.26
2018-09-23T00:09:10.803Z,59.30
2018-09-23T00:11:39.738Z,59.48
2018-09-23T00:14:09.103Z,59.51
2018-09-23T00:16:38.008Z,59.35
2018-09-23T00:19:07.203Z,59.34
2018-09-23T00:21:36.233Z,59.13
2018-09-23T00:24:05.160Z,62.19
2018-09-23T00:26:34.061Z,63.05
2018-09-23T00:29:03.104Z,63.14
2018-09-23T00:31:32.061Z,61.69
2018-09-23T00:34:00.971Z,62.39
2018-09-23T00:36:29.900Z,62.52
2018-09-23T00:38:58.846Z,61.76
2018-09-23T00:41:27.776Z,61.64
2018-09-23T00:43:56.686Z,63.31
2018-09-23T00:46:26.419Z,63.96
2018-09-23T00:48:55.373Z,64.28
2018-09-23T00:51:24.260Z,64.31
2018-09-23T00:53:53.147Z,64.72
2018-09-23T00:56:22.082Z,64.00
2018-09-23T00:58:50.970Z,63.43
2018-09-23T01:01:19.901Z,64.52
2018-09-23T01:03:48.815Z,64.60
2018-09-23T01:06:17.767Z,64.04
2018-09-23T01:08:46.663Z,64.28
2018-09-23T01:11:15.588Z,63.06
2018-09-23T01:13:44.478Z,61.58
2018-09-23T01:16:13.367Z,59.76
2018-09-23T01:18:42.272Z,63.64
2018-09-23T01:21:11.174Z,63.29
2018-09-23T01:23:40.131Z,60.34
2018-09-23T01:26:09.146Z,61.62
2018-09-23T01:28:38.459Z,64.58
2018-09-23T01:31:07.358Z,62.62
2018-09-23T01:33:36.320Z,62.71
2018-09-23T01:36:05.227Z,63.29
2018-09-23T01:38:40.234Z,62.67
2018-09-23T01:41:09.151Z,63.84
2018-09-23T01:43:38.066Z,62.85
2018-09-23T01:46:07.035Z,63.06
2018-09-23T01:48:35.919Z,61.76
2018-09-23T01:51:04.953Z,63.87
2018-09-23T01:53:33.854Z,61.10
2018-09-23T01:56:02.746Z,62.15
2018-09-23T01:58:31.639Z,61.48
2018-09-23T02:01:00.571Z,63.44
2018-09-23T02:03:29.472Z,61.63
2018-09-23T02:05:58.346Z,62.39
2018-09-23T02:08:27.263Z,61.98
2018-09-23T02:10:56.224Z,62.57
2018-09-23T02:13:25.265Z,60.94
2018-09-23T02:15:54.175Z,63.39
2018-09-23T02:18:23.145Z,60.31
2018-09-23T02:20:52.035Z,63.05
2018-09-23T02:23:20.961Z,62.49
2018-09-23T02:25:49.887Z,60.14
2018-09-23T02:28:18.806Z,60.60
2018-09-23T02:30:47.983Z,61.34
2018-09-23T02:33:16.953Z,63.92
2018-09-23T02:35:45.907Z,61.09
2018-09-23T02:38:14.797Z,61.04
2018-09-23T02:40:43.727Z,60.44
2018-09-23T02:43:12.662Z,62.13
2018-09-23T02:45:41.552Z,59.97
2018-09-23T02:48:10.476Z,59.29
2018-09-23T02:50:39.455Z,60.82
2018-09-23T02:53:08.355Z,59.25
2018-09-23T02:55:37.301Z,59.72
2018-09-23T02:58:06.347Z,61.80
2018-09-23T03:00:35.241Z,60.54
2018-09-23T03:03:04.132Z,61.11
2018-09-23T03:05:33.048Z,61.20
2018-09-23T03:08:01.935Z,61.69
2018-09-23T03:10:30.836Z,61.76
2018-09-23T03:12:59.745Z,62.59
2018-09-23T03:15:28.647Z,61.49
2018-09-23T03:17:57.543Z,61.68
2018-09-23T03:20:26.523Z,62.18
2018-09-23T03:22:55.425Z,63.11
2018-09-23T03:25:24.322Z,61.56
2018-09-23T03:27:53.236Z,60.93
2018-09-23T03:30:22.288Z,61.14
2018-09-23T03:32:51.174Z,61.57
2018-09-23T03:35:20.092Z,62.51
2018-09-23T03:37:49.003Z,62.22
2018-09-23T03:40:17.906Z,62.23
2018-09-23T03:42:47.041Z,61.35
2018-09-23T03:45:15.968Z,61.77
2018-09-23T03:47:44.875Z,61.44
2018-09-23T03:50:13.948Z,61.51
2018-09-23T03:52:42.841Z,61.31
2018-09-23T03:55:11.757Z,61.72
2018-09-23T03:57:40.643Z,60.94
2018-09-23T04:00:09.731Z,60.37
2018-09-23T04:02:38.627Z,60.02
2018-09-23T04:05:07.698Z,60.36
2018-09-23T04:07:36.583Z,60.61
2018-09-23T04:10:05.500Z,61.35
2018-09-23T04:12:34.390Z,60.77
2018-09-23T04:15:03.389Z,60.47
2018-09-23T04:17:32.303Z,61.99
2018-09-23T04:20:01.224Z,61.57
2018-09-23T04:22:30.118Z,61.71
2018-09-23T04:24:59.042Z,60.34
2018-09-23T04:27:28.069Z,60.60
2018-09-23T04:29:56.969Z,61.60
2018-09-23T04:32:25.874Z,61.36
2018-09-23T04:34:54.857Z,61.73
2018-09-23T04:37:23.805Z,62.07
2018-09-23T04:39:52.715Z,61.47
2018-09-23T04:42:21.609Z,61.43
2018-09-23T04:44:50.533Z,61.56
2018-09-23T04:47:19.528Z,61.66
2018-09-23T04:49:48.474Z,61.58
2018-09-23T04:52:17.372Z,61.72
2018-09-23T04:54:46.281Z,61.67
2018-09-23T04:57:15.185Z,61.65
2018-09-23T04:59:44.062Z,61.34
2018-09-23T05:02:12.966Z,61.62
2018-09-23T05:04:41.887Z,60.39
2018-09-23T05:07:10.814Z,61.58
2018-09-23T05:09:39.927Z,61.62
2018-09-23T05:12:08.887Z,58.11
2018-09-23T05:14:37.779Z,59.32
2018-09-23T05:17:06.791Z,58.36
2018-09-23T05:19:35.763Z,55.61
2018-09-23T05:22:04.825Z,55.18
2018-09-23T05:24:33.798Z,56.83
2018-09-23T05:27:02.704Z,57.35
2018-09-23T05:29:31.660Z,57.13
2018-09-23T05:32:00.547Z,57.50
2018-09-23T05:34:29.491Z,56.95
2018-09-23T05:36:58.395Z,58.08
2018-09-23T05:39:27.372Z,57.49
2018-09-23T05:41:56.348Z,57.13
2018-09-23T05:44:25.267Z,58.78
2018-09-23T05:46:54.188Z,56.74
2018-09-23T05:49:23.090Z,55.80
2018-09-23T05:51:52.088Z,55.60
2018-09-23T05:54:21.065Z,55.88
2018-09-23T05:56:49.974Z,55.53
2018-09-23T05:59:18.915Z,55.73
2018-09-23T06:01:47.868Z,54.85
2018-09-23T06:04:16.788Z,54.77
2018-09-23T06:06:45.689Z,53.98
2018-09-23T06:09:14.603Z,53.81
2018-09-23T06:11:43.596Z,53.66
2018-09-23T06:14:12.570Z,53.50
2018-09-23T06:16:41.463Z,54.97
2018-09-23T06:19:10.375Z,58.26
2018-09-23T06:21:39.325Z,54.11
2018-09-23T06:24:08.313Z,53.18
2018-09-23T06:26:37.329Z,53.79
2018-09-23T06:29:06.455Z,54.88
2018-09-23T06:31:35.494Z,55.26
2018-09-23T06:34:04.497Z,53.76
2018-09-23T06:36:33.552Z,52.63
2018-09-23T06:39:02.461Z,55.17
2018-09-23T06:41:31.402Z,50.30
2018-09-23T06:44:00.294Z,52.89
2018-09-23T06:46:29.268Z,53.49
2018-09-23T06:48:58.240Z,49.66
2018-09-23T06:51:27.273Z,50.74
2018-09-23T06:53:56.363Z,49.49
2018-09-23T06:56:25.337Z,49.35
2018-09-23T06:58:54.297Z,49.25
2018-09-23T07:01:23.233Z,51.75
2018-09-23T07:03:52.132Z,52.02
2018-09-23T07:06:21.027Z,51.84
2018-09-23T07:08:49.914Z,50.22
2018-09-23T07:11:18.811Z,50.13
2018-09-23T07:13:47.742Z,49.26
2018-09-23T07:16:16.690Z,50.69
2018-09-23T07:18:45.614Z,51.66
2018-09-23T07:21:14.589Z,51.63
2018-09-23T07:23:43.525Z,49.19
2018-09-23T07:26:12.468Z,48.73
2018-09-23T07:28:41.372Z,49.95
2018-09-23T07:31:10.524Z,50.75
2018-09-23T07:33:39.429Z,50.89
2018-09-23T07:36:08.302Z,51.94
2018-09-23T07:38:37.265Z,50.54
2018-09-23T07:41:06.178Z,52.53
2018-09-23T07:43:35.082Z,51.16
2018-09-23T07:46:04.023Z,50.90
2018-09-23T07:48:32.910Z,50.12
2018-09-23T07:51:01.812Z,53.28
2018-09-23T07:53:30.720Z,52.55
2018-09-23T07:55:59.608Z,54.57
2018-09-23T07:58:28.772Z,53.06
2018-09-23T08:00:58.163Z,50.81
2018-09-23T08:03:27.464Z,51.19
2018-09-23T08:05:56.686Z,53.08
2018-09-23T08:08:25.917Z,50.49
2018-09-23T08:10:55.284Z,50.16
2018-09-23T08:13:24.412Z,48.19
2018-09-23T08:15:53.387Z,48.84
2018-09-23T08:18:22.407Z,50.69
2018-09-23T08:20:51.364Z,47.56
2018-09-23T08:23:20.348Z,49.97
2018-09-23T08:25:49.284Z,49.82
2018-09-23T08:28:18.199Z,49.91
2018-09-23T08:30:47.158Z,50.64
2018-09-23T08:33:16.051Z,49.89
2018-09-23T08:35:45.279Z,47.66
2018-09-23T08:38:14.163Z,51.22
2018-09-23T08:40:43.062Z,50.43
2018-09-23T08:43:11.983Z,50.91
2018-09-23T08:45:40.886Z,51.38
2018-09-23T08:48:10.094Z,48.84
2018-09-23T08:50:39.295Z,47.52
2018-09-23T08:53:08.179Z,47.74
2018-09-23T08:55:37.045Z,52.30
2018-09-23T08:58:06.399Z,49.53
2018-09-23T09:00:35.290Z,49.88
2018-09-23T09:03:04.277Z,52.21
2018-09-23T09:05:33.367Z,50.00
2018-09-23T09:08:02.240Z,48.92
2018-09-23T09:10:31.148Z,48.49
2018-09-23T09:13:00.185Z,50.23
2018-09-23T09:15:29.084Z,49.82
2018-09-23T09:17:57.986Z,48.65
2018-09-23T09:20:26.995Z,50.36
2018-09-23T09:22:55.906Z,49.35
2018-09-23T09:25:24.958Z,51.94
2018-09-23T09:27:54.407Z,48.72
2018-09-23T09:30:23.308Z,49.43
2018-09-23T09:32:52.194Z,48.63
2018-09-23T09:35:21.175Z,48.39
2018-09-23T09:37:50.032Z,48.26
2018-09-23T09:40:18.915Z,50.42
2018-09-23T09:42:47.893Z,47.36
2018-09-23T09:45:16.771Z,47.64
2018-09-23T09:47:45.677Z,49.23
2018-09-23T09:50:14.583Z,48.48
2018-09-23T09:52:43.529Z,49.47
2018-09-23T09:55:12.502Z,48.06
2018-09-23T09:57:41.362Z,50.08
2018-09-23T10:00:10.364Z,48.83
2018-09-23T10:02:39.251Z,49.53
2018-09-23T10:05:08.310Z,48.56
2018-09-23T10:07:37.182Z,48.04
2018-09-23T10:10:06.103Z,48.77
2018-09-23T10:12:35.395Z,49.99
2018-09-23T10:15:04.611Z,48.63
2018-09-23T10:17:33.903Z,49.77
2018-09-23T10:20:02.788Z,48.59
2018-09-23T10:22:31.730Z,48.30
2018-09-23T10:25:00.574Z,48.48
2018-09-23T10:27:29.503Z,48.15
2018-09-23T10:29:58.371Z,48.13
2018-09-23T10:32:27.251Z,47.39
2018-09-23T10:34:56.335Z,47.14
2018-09-23T10:37:25.239Z,46.54
2018-09-23T10:39:54.132Z,47.22
2018-09-23T10:42:23.085Z,48.70
2018-09-23T10:44:52.095Z,47.16
2018-09-23T10:47:20.970Z,48.21
2018-09-23T10:49:49.928Z,47.53
2018-09-23T10:52:18.806Z,45.48
2018-09-23T10:54:47.776Z,46.13
2018-09-23T10:57:16.704Z,46.08
2018-09-23T10:59:45.620Z,45.61
2018-09-23T11:02:14.553Z,45.35
2018-09-23T11:04:43.428Z,45.28
2018-09-23T11:07:12.372Z,47.10
2018-09-23T11:09:41.318Z,46.94
2018-09-23T11:12:10.264Z,45.01
2018-09-23T11:14:39.171Z,46.18
2018-09-23T11:17:08.100Z,44.53
2018-09-23T11:19:37.041Z,43.53
2018-09-23T11:22:05.951Z,44.01
2018-09-23T11:24:34.877Z,45.33
2018-09-23T11:27:04.798Z,44.75
2018-09-23T11:29:33.751Z,43.71
2018-09-23T11:32:03.451Z,44.63
2018-09-23T11:34:32.415Z,43.54
2018-09-23T11:37:02.056Z,44.74
2018-09-23T11:39:31.036Z,43.73
2018-09-23T11:41:59.991Z,44.44
2018-09-23T11:44:28.903Z,45.25
2018-09-23T11:46:57.812Z,45.20
2018-09-23T11:49:26.696Z,43.65
2018-09-23T11:51:55.637Z,43.56
2018-09-23T11:54:24.569Z,44.56
2018-09-23T11:56:53.528Z,45.37
2018-09-23T11:59:22.475Z,44.02
2018-09-23T12:01:51.539Z,42.94
2018-09-23T12:04:20.523Z,43.28
2018-09-23T12:06:49.426Z,43.52
2018-09-23T12:09:18.327Z,42.34
2018-09-23T12:11:47.281Z,41.66
2018-09-23T12:14:16.193Z,41.81
2018-09-23T12:16:45.096Z,42.26
2018-09-23T12:19:14.051Z,41.13
2018-09-23T12:21:42.946Z,41.77
2018-09-23T12:24:11.901Z,41.98
2018-09-23T12:26:40.815Z,41.49
2018-09-23T12:29:09.713Z,42.35
2018-09-23T12:31:38.642Z,42.12
2018-09-23T12:34:07.667Z,42.89
2018-09-23T12:36:36.573Z,41.00
2018-09-23T12:39:08.639Z,41.72
2018-09-23T12:41:37.695Z,41.68
2018-09-23T12:44:06.896Z,42.51
2018-09-23T12:46:35.808Z,41.35
2018-09-23T12:49:04.751Z,41.64
2018-09-23T12:51:33.682Z,41.50
2018-09-23T12:54:02.592Z,43.53
2018-09-23T12:56:31.507Z,42.57
2018-09-23T12:59:00.412Z,39.75
2018-09-23T13:01:29.320Z,40.22
2018-09-23T13:03:58.279Z,40.62
2018-09-23T13:06:27.164Z,39.98
2018-09-23T13:08:56.092Z,43.15
2018-09-23T13:11:24.998Z,41.25
2018-09-23T13:13:53.870Z,41.94
2018-09-23T13:16:22.827Z,43.32
2018-09-23T13:18:51.789Z,42.74
2018-09-23T13:21:20.695Z,40.58
2018-09-23T13:23:49.585Z,41.99
2018-09-23T13:26:18.705Z,39.99
2018-09-23T13:28:47.668Z,39.67
2018-09-23T13:31:17.651Z,40.16
2018-09-23T13:33:46.657Z,40.90
2018-09-23T13:36:15.544Z,40.52
2018-09-23T13:38:44.478Z,40.01
2018-09-23T13:41:13.377Z,40.25
2018-09-23T13:43:42.282Z,40.95
2018-09-23T13:46:11.205Z,41.30
2018-09-23T13:48:40.134Z,40.20
2018-09-23T13:51:09.089Z,41.06
2018-09-23T13:53:38.011Z,40.37
2018-09-23T13:56:06.939Z,40.11
2018-09-23T13:58:36.966Z,40.97
2018-09-23T14:01:06.176Z,40.96
2018-09-23T14:03:35.159Z,40.27
2018-09-23T14:06:04.055Z,40.39
2018-09-23T14:08:32.966Z,40.60
2018-09-23T14:11:01.894Z,40.89
2018-09-23T14:13:30.918Z,40.73
2018-09-23T14:15:59.990Z,40.65
2018-09-23T14:18:28.968Z,40.78
2018-09-23T14:20:57.915Z,40.96
2018-09-23T14:23:26.965Z,40.56
2018-09-23T14:25:55.907Z,41.41
2018-09-23T14:28:24.804Z,41.24
2018-09-23T14:30:53.698Z,41.37
2018-09-23T14:33:25.355Z,41.35
2018-09-23T14:35:54.363Z,41.37
2018-09-23T14:38:23.254Z,41.41
2018-09-23T14:40:52.231Z,41.54
2018-09-23T14:43:21.135Z,40.92
2018-09-23T14:45:50.059Z,40.59
2018-09-23T14:48:18.983Z,40.68
2018-09-23T14:50:47.967Z,41.13
2018-09-23T14:53:16.862Z,40.60
2018-09-23T14:55:45.748Z,41.04
2018-09-23T14:58:14.643Z,40.68
2018-09-23T15:00:43.658Z,41.65
2018-09-23T15:03:12.608Z,41.82
2018-09-23T15:05:41.541Z,42.00
2018-09-23T15:08:10.473Z,42.36
2018-09-23T15:10:39.375Z,42.32
2018-09-23T15:13:08.363Z,42.09
2018-09-23T15:15:37.267Z,41.79
2018-09-23T15:18:06.250Z,42.18
2018-09-23T15:20:35.167Z,41.27
2018-09-23T15:23:04.091Z,42.67
2018-09-23T15:25:33.039Z,42.13
2018-09-23T15:28:02.002Z,42.00
2018-09-23T15:30:30.997Z,41.67
2018-09-23T15:32:59.908Z,41.29
2018-09-23T15:35:28.961Z,41.46
2018-09-23T15:37:57.880Z,42.08
2018-09-23T15:40:26.778Z,41.72
2018-09-23T15:42:55.683Z,41.84
2018-09-23T15:45:24.579Z,41.66
2018-09-23T15:47:53.596Z,41.89
2018-09-23T15:50:22.510Z,43.07
2018-09-23T15:52:51.428Z,42.18
2018-09-23T15:55:20.325Z,42.04
2018-09-23T15:57:49.359Z,42.46
2018-09-23T16:00:18.323Z,43.37
2018-09-23T16:02:47.258Z,43.19
2018-09-23T16:05:16.161Z,43.01
2018-09-23T16:07:45.135Z,43.52
2018-09-23T16:10:14.128Z,42.67
2018-09-23T16:12:43.015Z,43.43
2018-09-23T16:15:11.928Z,43.88
2018-09-23T16:17:40.909Z,43.85
2018-09-23T16:20:10.109Z,43.53
2018-09-23T16:22:39.012Z,43.53
2018-09-23T16:25:07.969Z,44.49
2018-09-23T16:27:36.879Z,43.21
2018-09-23T16:30:05.876Z,43.64
2018-09-23T16:32:34.827Z,43.85
2018-09-23T16:35:03.792Z,43.90
2018-09-23T16:37:32.771Z,44.47
2018-09-23T16:40:01.698Z,43.89
2018-09-23T16:42:30.643Z,45.04
2018-09-23T16:44:59.551Z,45.64
2018-09-23T16:47:28.518Z,46.12
2018-09-23T16:49:57.463Z,45.64
2018-09-23T16:52:26.417Z,46.13
2018-09-23T16:54:55.372Z,46.82
2018-09-23T16:57:24.252Z,46.00
2018-09-23T16:59:53.160Z,46.88
2018-09-23T17:02:22.052Z,46.13
2018-09-23T17:04:51.034Z,46.62
2018-09-23T17:07:20.031Z,47.63
2018-09-23T17:09:48.911Z,49.38
2018-09-23T17:12:17.813Z,48.70
2018-09-23T17:14:46.685Z,49.68
2018-09-23T17:17:15.600Z,51.04
2018-09-23T17:19:44.587Z,51.11
2018-09-23T17:22:13.650Z,49.38
2018-09-23T17:24:42.594Z,51.12
2018-09-23T17:27:11.570Z,50.36
2018-09-23T17:29:40.544Z,48.51
2018-09-23T17:32:09.461Z,49.48
2018-09-23T17:34:38.366Z,50.98
2018-09-23T17:37:07.295Z,52.22
2018-09-23T17:39:36.208Z,51.85
2018-09-23T17:42:05.164Z,52.50
2018-09-23T17:44:34.142Z,51.22
2018-09-23T17:47:03.075Z,51.66
2018-09-23T17:49:32.060Z,50.89
2018-09-23T17:52:00.999Z,50.39
2018-09-23T17:54:29.984Z,51.09
2018-09-23T17:56:58.886Z,50.65
2018-09-23T17:59:27.859Z,50.41
2018-09-23T18:01:56.868Z,51.05
2018-09-23T18:04:25.771Z,51.14
2018-09-23T18:06:54.690Z,51.46
2018-09-23T18:09:23.612Z,51.30
2018-09-23T18:11:52.643Z,50.04
2018-09-23T18:14:21.744Z,50.15
2018-09-23T18:16:50.719Z,51.29
2018-09-23T18:19:20.317Z,50.84
2018-09-23T18:21:49.845Z,51.00
2018-09-23T18:24:18.863Z,51.31
2018-09-23T18:26:48.062Z,51.67
2018-09-23T18:29:17.073Z,51.96
2018-09-23T18:31:46.068Z,52.59
2018-09-23T18:34:15.115Z,52.30
2018-09-23T18:36:44.206Z,53.01
2018-09-23T18:39:13.847Z,52.66
2018-09-23T18:41:42.788Z,52.55
2018-09-23T18:44:11.909Z,53.36
2018-09-23T18:46:42.365Z,53.08
2018-09-23T18:49:12.280Z,52.81
2018-09-23T18:51:42.503Z,52.76
2018-09-23T18:54:16.621Z,53.42
2018-09-23T18:56:45.756Z,53.47
2018-09-23T18:59:14.820Z,53.58
2018-09-23T19:01:43.834Z,53.36
2018-09-23T19:04:12.853Z,54.17
2018-09-23T19:06:41.842Z,53.49
2018-09-23T19:09:10.828Z,54.33
2018-09-23T19:11:39.880Z,54.09
2018-09-23T19:14:12.215Z,54.02
2018-09-23T19:16:42.059Z,53.61
2018-09-23T19:19:11.170Z,53.84
2018-09-23T19:21:40.146Z,54.10
2018-09-23T19:24:09.183Z,54.08
2018-09-23T19:26:38.251Z,54.67
2018-09-23T19:29:07.214Z,54.62
2018-09-23T19:31:36.240Z,55.07
2018-09-23T19:34:05.197Z,54.76
2018-09-23T19:36:34.212Z,55.11
2018-09-23T19:39:03.621Z,55.91
2018-09-23T19:41:33.488Z,54.91
2018-09-23T19:44:02.541Z,55.34
2018-09-23T19:46:31.484Z,56.18
2018-09-23T19:49:00.496Z,56.25
2018-09-23T19:51:29.458Z,55.66
2018-09-23T19:53:58.452Z,55.99
2018-09-23T19:56:27.544Z,56.36
2018-09-23T19:58:56.503Z,56.66
2018-09-23T20:01:25.472Z,55.67
2018-09-23T20:03:54.492Z,56.13
2018-09-23T20:06:23.555Z,56.13
2018-09-23T20:08:52.520Z,56.36
2018-09-23T20:11:21.528Z,56.01
2018-09-23T20:13:50.471Z,56.81
2018-09-23T20:16:19.455Z,56.26
2018-09-23T20:18:48.486Z,56.25
2018-09-23T20:21:17.439Z,56.43
2018-09-23T20:23:54.104Z,56.78
2018-09-23T20:26:24.560Z,57.47
2018-09-23T20:28:53.555Z,56.43
2018-09-23T20:31:22.505Z,56.86
2018-09-23T20:33:51.463Z,56.87
2018-09-23T20:36:23.937Z,56.52
2018-09-23T20:38:55.762Z,57.02
2018-09-23T20:41:24.700Z,57.30
2018-09-23T20:43:53.744Z,57.32
2018-09-23T20:46:23.553Z,57.71
2018-09-23T20:48:52.557Z,57.41
2018-09-23T20:51:21.512Z,57.51
2018-09-23T20:53:50.525Z,57.60
2018-09-23T20:56:19.439Z,57.44
2018-09-23T20:58:48.460Z,57.57
2018-09-23T21:01:17.494Z,56.81
2018-09-23T21:03:46.437Z,56.86
2018-09-23T21:06:15.467Z,57.61
2018-09-23T21:08:44.399Z,57.85
2018-09-23T21:11:13.429Z,58.49
2018-09-23T21:13:42.886Z,59.46
2018-09-23T21:16:11.834Z,60.34
2018-09-23T21:18:41.781Z,56.74
2018-09-23T21:21:18.598Z,57.08
2018-09-23T21:23:47.518Z,59.62
2018-09-23T21:26:16.466Z,58.09
2018-09-23T21:28:45.909Z,62.36
2018-09-23T21:31:14.938Z,58.11
2018-09-23T21:33:43.934Z,58.21
2018-09-23T21:36:12.909Z,58.32
2018-09-23T21:38:41.840Z,57.72
2018-09-23T21:41:10.788Z,57.90
2018-09-23T21:43:39.752Z,60.31
2018-09-23T21:46:09.185Z,58.71
2018-09-23T21:48:38.096Z,59.23
2018-09-23T21:51:07.037Z,59.25
2018-09-23T21:53:35.972Z,58.68
2018-09-23T21:56:05.031Z,58.92
2018-09-23T21:58:34.946Z,59.65
2018-09-23T22:01:03.964Z,59.01
2018-09-23T22:03:33.028Z,59.65
2018-09-23T22:06:01.921Z,58.96
2018-09-23T22:08:30.863Z,59.09
2018-09-23T22:10:59.789Z,59.13
2018-09-23T22:13:28.740Z,58.63
2018-09-23T22:15:57.654Z,58.40
2018-09-23T22:18:26.660Z,58.49
2018-09-23T22:20:55.653Z,59.42
2018-09-23T22:23:24.556Z,58.66
2018-09-23T22:25:53.487Z,58.67
2018-09-23T22:28:22.502Z,60.41
2018-09-23T22:30:51.526Z,60.48
2018-09-23T22:33:20.476Z,61.71
2018-09-23T22:35:49.498Z,60.02
2018-09-23T22:38:18.481Z,58.98
2018-09-23T22:40:47.470Z,59.34
2018-09-23T22:43:16.392Z,59.40
2018-09-23T22:45:45.395Z,59.67
2018-09-23T22:48:14.342Z,59.56
2018-09-23T22:50:43.255Z,60.75
2018-09-23T22:53:12.379Z,60.03
2018-09-23T22:55:42.333Z,60.13
2018-09-23T22:58:11.268Z,61.42
2018-09-23T23:00:40.222Z,60.20
2018-09-23T23:03:09.221Z,62.19
2018-09-23T23:05:38.144Z,59.20
2018-09-23T23:08:07.133Z,60.31
2018-09-23T23:10:36.087Z,60.92
2018-09-23T23:13:05.011Z,59.75
2018-09-23T23:15:33.941Z,59.62
2018-09-23T23:18:02.852Z,59.11
2018-09-23T23:20:31.836Z,59.36
2018-09-23T23:23:00.770Z,61.85
2018-09-23T23:25:29.789Z,60.09
2018-09-23T23:27:59.472Z,60.01
2018-09-23T23:30:28.450Z,60.36
2018-09-23T23:32:57.372Z,59.36
2018-09-23T23:35:26.511Z,60.09
2018-09-23T23:37:55.415Z,61.03
2018-09-23T23:40:24.412Z,60.56
2018-09-23T23:42:53.346Z,61.57
2018-09-23T23:45:22.272Z,61.69
2018-09-23T23:47:51.207Z,61.29
2018-09-23T23:50:20.143Z,62.77
2018-09-23T23:52:49.133Z,61.34
2018-09-23T23:55:18.073Z,61.21
2018-09-23T23:57:47.029Z,61.22
